sensor_id;sensor_type;location;lat;lon;timestamp;P1;durP1;ratioP1;P2;durP2;ratioP2
73296;SDS011;61524;50.938;11.396;2023-03-04T00:01:03;18.63;;;8.10;;
73296;SDS011;61524;50.938;11.396;2023-03-04T00:03:28;20.65;;;8.57;;
73296;SDS011;61524;50.938;11.396;2023-03-04T00:05:53;18.87;;;8.50;;
73296;SDS011;61524;50.938;11.396;2023-03-04T00:08:18;17.87;;;7.47;;
73296;SDS011;61524;50.938;11.396;2023-03-04T00:10:44;20.53;;;8.30;;
73296;SDS011;61524;50.938;11.396;2023-03-04T00:13:09;18.52;;;8.05;;
73296;SDS011;61524;50.938;11.396;2023-03-04T00:15:34;15.73;;;7.55;;
73296;SDS011;61524;50.938;11.396;2023-03-04T00:18:00;19.20;;;7.93;;
73296;SDS011;61524;50.938;11.396;2023-03-04T00:20:25;18.37;;;8.17;;
73296;SDS011;61524;50.938;11.396;2023-03-04T00:22:50;18.43;;;8.00;;
73296;SDS011;61524;50.938;11.396;2023-03-04T00:25:15;19.53;;;7.87;;
73296;SDS011;61524;50.938;11.396;2023-03-04T00:27:41;22.57;;;7.43;;
73296;SDS011;61524;50.938;11.396;2023-03-04T00:30:06;15.50;;;7.80;;
73296;SDS011;61524;50.938;11.396;2023-03-04T00:32:32;15.43;;;7.35;;
73296;SDS011;61524;50.938;11.396;2023-03-04T00:34:57;17.17;;;7.13;;
73296;SDS011;61524;50.938;11.396;2023-03-04T00:37:22;19.93;;;8.30;;
73296;SDS011;61524;50.938;11.396;2023-03-04T00:39:48;17.85;;;8.32;;
73296;SDS011;61524;50.938;11.396;2023-03-04T00:42:13;16.55;;;7.35;;
73296;SDS011;61524;50.938;11.396;2023-03-04T00:44:38;18.03;;;7.80;;
73296;SDS011;61524;50.938;11.396;2023-03-04T00:47:04;17.30;;;8.25;;
73296;SDS011;61524;50.938;11.396;2023-03-04T00:49:29;17.73;;;7.87;;
73296;SDS011;61524;50.938;11.396;2023-03-04T00:51:54;16.60;;;8.00;;
73296;SDS011;61524;50.938;11.396;2023-03-04T00:54:20;19.10;;;8.30;;
73296;SDS011;61524;50.938;11.396;2023-03-04T00:56:45;16.67;;;7.63;;
73296;SDS011;61524;50.938;11.396;2023-03-04T00:59:11;19.60;;;8.20;;
73296;SDS011;61524;50.938;11.396;2023-03-04T01:01:36;16.00;;;7.10;;
73296;SDS011;61524;50.938;11.396;2023-03-04T01:04:01;14.97;;;7.70;;
73296;SDS011;61524;50.938;11.396;2023-03-04T01:06:26;17.80;;;8.23;;
73296;SDS011;61524;50.938;11.396;2023-03-04T01:08:52;16.10;;;7.67;;
73296;SDS011;61524;50.938;11.396;2023-03-04T01:11:17;19.70;;;7.30;;
73296;SDS011;61524;50.938;11.396;2023-03-04T01:13:42;17.13;;;8.00;;
73296;SDS011;61524;50.938;11.396;2023-03-04T01:16:08;15.97;;;7.60;;
73296;SDS011;61524;50.938;11.396;2023-03-04T01:18:34;14.40;;;6.88;;
73296;SDS011;61524;50.938;11.396;2023-03-04T01:21:00;19.80;;;7.70;;
73296;SDS011;61524;50.938;11.396;2023-03-04T01:23:25;18.13;;;7.20;;
73296;SDS011;61524;50.938;11.396;2023-03-04T01:25:51;21.97;;;9.03;;
73296;SDS011;61524;50.938;11.396;2023-03-04T01:28:16;14.63;;;6.97;;
73296;SDS011;61524;50.938;11.396;2023-03-04T01:30:41;18.75;;;7.97;;
73296;SDS011;61524;50.938;11.396;2023-03-04T01:33:07;19.03;;;8.20;;
73296;SDS011;61524;50.938;11.396;2023-03-04T01:35:32;14.07;;;7.80;;
73296;SDS011;61524;50.938;11.396;2023-03-04T01:37:57;15.80;;;8.03;;
73296;SDS011;61524;50.938;11.396;2023-03-04T01:40:22;16.43;;;8.27;;
73296;SDS011;61524;50.938;11.396;2023-03-04T01:42:48;18.95;;;7.45;;
73296;SDS011;61524;50.938;11.396;2023-03-04T01:45:13;22.07;;;9.97;;
73296;SDS011;61524;50.938;11.396;2023-03-04T01:47:40;14.05;;;7.15;;
73296;SDS011;61524;50.938;11.396;2023-03-04T01:50:10;18.42;;;8.40;;
73296;SDS011;61524;50.938;11.396;2023-03-04T01:52:37;15.80;;;8.85;;
73296;SDS011;61524;50.938;11.396;2023-03-04T01:55:05;26.23;;;10.27;;
73296;SDS011;61524;50.938;11.396;2023-03-04T01:57:33;17.65;;;7.65;;
73296;SDS011;61524;50.938;11.396;2023-03-04T02:02:43;18.67;;;9.60;;
73296;SDS011;61524;50.938;11.396;2023-03-04T02:05:09;13.70;;;7.55;;
73296;SDS011;61524;50.938;11.396;2023-03-04T02:07:34;19.10;;;9.23;;
73296;SDS011;61524;50.938;11.396;2023-03-04T02:09:59;13.93;;;6.88;;
73296;SDS011;61524;50.938;11.396;2023-03-04T02:12:25;15.80;;;7.82;;
73296;SDS011;61524;50.938;11.396;2023-03-04T02:14:50;21.77;;;9.67;;
73296;SDS011;61524;50.938;11.396;2023-03-04T02:17:15;18.93;;;8.20;;
73296;SDS011;61524;50.938;11.396;2023-03-04T02:19:43;15.60;;;7.53;;
73296;SDS011;61524;50.938;11.396;2023-03-04T02:22:11;17.45;;;8.65;;
73296;SDS011;61524;50.938;11.396;2023-03-04T02:24:41;19.83;;;8.55;;
73296;SDS011;61524;50.938;11.396;2023-03-04T02:27:07;15.50;;;7.30;;
73296;SDS011;61524;50.938;11.396;2023-03-04T02:29:32;15.82;;;8.60;;
73296;SDS011;61524;50.938;11.396;2023-03-04T02:31:57;18.77;;;8.40;;
73296;SDS011;61524;50.938;11.396;2023-03-04T02:34:24;14.10;;;7.37;;
73296;SDS011;61524;50.938;11.396;2023-03-04T02:36:52;17.88;;;8.00;;
73296;SDS011;61524;50.938;11.396;2023-03-04T02:39:31;16.63;;;8.70;;
73296;SDS011;61524;50.938;11.396;2023-03-04T02:41:57;16.42;;;7.60;;
73296;SDS011;61524;50.938;11.396;2023-03-04T02:44:26;19.83;;;8.23;;
73296;SDS011;61524;50.938;11.396;2023-03-04T02:46:52;16.10;;;7.97;;
73296;SDS011;61524;50.938;11.396;2023-03-04T02:49:18;16.10;;;8.43;;
73296;SDS011;61524;50.938;11.396;2023-03-04T02:51:43;21.90;;;8.18;;
73296;SDS011;61524;50.938;11.396;2023-03-04T02:54:19;16.85;;;7.55;;
73296;SDS011;61524;50.938;11.396;2023-03-04T02:56:45;16.77;;;8.25;;
73296;SDS011;61524;50.938;11.396;2023-03-04T02:59:10;16.65;;;8.82;;
73296;SDS011;61524;50.938;11.396;2023-03-04T03:01:36;17.45;;;8.65;;
73296;SDS011;61524;50.938;11.396;2023-03-04T03:04:01;18.43;;;7.87;;
73296;SDS011;61524;50.938;11.396;2023-03-04T03:06:26;18.50;;;8.40;;
73296;SDS011;61524;50.938;11.396;2023-03-04T03:08:51;16.13;;;8.03;;
73296;SDS011;61524;50.938;11.396;2023-03-04T03:11:17;16.30;;;9.27;;
73296;SDS011;61524;50.938;11.396;2023-03-04T03:13:42;14.30;;;7.87;;
73296;SDS011;61524;50.938;11.396;2023-03-04T03:16:08;16.55;;;8.00;;
73296;SDS011;61524;50.938;11.396;2023-03-04T03:18:34;15.90;;;7.63;;
73296;SDS011;61524;50.938;11.396;2023-03-04T03:20:59;13.10;;;6.97;;
73296;SDS011;61524;50.938;11.396;2023-03-04T03:23:24;16.57;;;7.77;;
73296;SDS011;61524;50.938;11.396;2023-03-04T03:25:50;17.87;;;8.60;;
73296;SDS011;61524;50.938;11.396;2023-03-04T03:28:15;16.80;;;8.03;;
73296;SDS011;61524;50.938;11.396;2023-03-04T03:30:40;14.77;;;7.60;;
73296;SDS011;61524;50.938;11.396;2023-03-04T03:33:05;17.03;;;8.13;;
73296;SDS011;61524;50.938;11.396;2023-03-04T03:35:31;19.17;;;7.47;;
73296;SDS011;61524;50.938;11.396;2023-03-04T03:37:56;18.30;;;6.80;;
73296;SDS011;61524;50.938;11.396;2023-03-04T03:40:21;15.63;;;7.43;;
73296;SDS011;61524;50.938;11.396;2023-03-04T03:42:46;15.23;;;7.53;;
73296;SDS011;61524;50.938;11.396;2023-03-04T03:45:12;15.20;;;7.73;;
73296;SDS011;61524;50.938;11.396;2023-03-04T03:47:37;16.92;;;6.32;;
73296;SDS011;61524;50.938;11.396;2023-03-04T03:50:03;17.95;;;6.43;;
73296;SDS011;61524;50.938;11.396;2023-03-04T03:52:29;15.25;;;6.95;;
73296;SDS011;61524;50.938;11.396;2023-03-04T03:54:54;16.13;;;7.00;;
73296;SDS011;61524;50.938;11.396;2023-03-04T03:57:19;14.07;;;6.38;;
73296;SDS011;61524;50.938;11.396;2023-03-04T03:59:44;15.77;;;7.07;;
73296;SDS011;61524;50.938;11.396;2023-03-04T04:02:10;14.77;;;6.43;;
73296;SDS011;61524;50.938;11.396;2023-03-04T04:04:35;14.73;;;6.80;;
73296;SDS011;61524;50.938;11.396;2023-03-04T04:07:00;16.20;;;7.50;;
73296;SDS011;61524;50.938;11.396;2023-03-04T04:09:25;15.27;;;6.67;;
73296;SDS011;61524;50.938;11.396;2023-03-04T04:11:51;12.40;;;6.60;;
73296;SDS011;61524;50.938;11.396;2023-03-04T04:14:16;17.13;;;6.00;;
73296;SDS011;61524;50.938;11.396;2023-03-04T04:16:41;16.43;;;6.07;;
73296;SDS011;61524;50.938;11.396;2023-03-04T04:19:08;16.80;;;6.65;;
73296;SDS011;61524;50.938;11.396;2023-03-04T04:21:34;15.77;;;7.03;;
73296;SDS011;61524;50.938;11.396;2023-03-04T04:23:59;14.37;;;6.33;;
73296;SDS011;61524;50.938;11.396;2023-03-04T04:26:24;16.60;;;5.60;;
73296;SDS011;61524;50.938;11.396;2023-03-04T04:28:50;15.23;;;5.13;;
73296;SDS011;61524;50.938;11.396;2023-03-04T04:31:15;13.30;;;5.67;;
73296;SDS011;61524;50.938;11.396;2023-03-04T04:33:40;14.75;;;5.75;;
73296;SDS011;61524;50.938;11.396;2023-03-04T04:36:06;14.07;;;6.47;;
73296;SDS011;61524;50.938;11.396;2023-03-04T04:38:31;17.17;;;6.45;;
73296;SDS011;61524;50.938;11.396;2023-03-04T04:40:56;15.23;;;5.93;;
73296;SDS011;61524;50.938;11.396;2023-03-04T04:43:22;13.93;;;5.75;;
73296;SDS011;61524;50.938;11.396;2023-03-04T04:45:47;16.35;;;4.97;;
73296;SDS011;61524;50.938;11.396;2023-03-04T04:48:13;15.70;;;5.73;;
73296;SDS011;61524;50.938;11.396;2023-03-04T04:50:38;19.97;;;5.90;;
73296;SDS011;61524;50.938;11.396;2023-03-04T04:53:03;15.37;;;5.67;;
73296;SDS011;61524;50.938;11.396;2023-03-04T04:55:28;12.33;;;4.93;;
73296;SDS011;61524;50.938;11.396;2023-03-04T04:57:54;17.63;;;5.23;;
73296;SDS011;61524;50.938;11.396;2023-03-04T05:00:19;16.93;;;5.57;;
73296;SDS011;61524;50.938;11.396;2023-03-04T05:02:45;21.02;;;7.05;;
73296;SDS011;61524;50.938;11.396;2023-03-04T05:05:10;13.03;;;4.87;;
73296;SDS011;61524;50.938;11.396;2023-03-04T05:07:35;13.40;;;5.67;;
73296;SDS011;61524;50.938;11.396;2023-03-04T05:10:01;18.07;;;5.77;;
73296;SDS011;61524;50.938;11.396;2023-03-04T05:12:26;18.33;;;5.20;;
73296;SDS011;61524;50.938;11.396;2023-03-04T05:14:51;13.85;;;5.90;;
73296;SDS011;61524;50.938;11.396;2023-03-04T05:17:17;16.17;;;5.65;;
73296;SDS011;61524;50.938;11.396;2023-03-04T05:19:42;12.53;;;5.47;;
73296;SDS011;61524;50.938;11.396;2023-03-04T05:22:07;19.40;;;6.20;;
73296;SDS011;61524;50.938;11.396;2023-03-04T05:24:32;14.23;;;5.45;;
73296;SDS011;61524;50.938;11.396;2023-03-04T05:26:59;16.70;;;5.65;;
73296;SDS011;61524;50.938;11.396;2023-03-04T05:29:24;17.25;;;5.90;;
73296;SDS011;61524;50.938;11.396;2023-03-04T05:31:49;13.37;;;5.23;;
73296;SDS011;61524;50.938;11.396;2023-03-04T05:34:15;12.73;;;5.93;;
73296;SDS011;61524;50.938;11.396;2023-03-04T05:36:40;13.93;;;6.33;;
73296;SDS011;61524;50.938;11.396;2023-03-04T05:39:05;15.80;;;4.97;;
73296;SDS011;61524;50.938;11.396;2023-03-04T05:41:30;12.90;;;5.13;;
73296;SDS011;61524;50.938;11.396;2023-03-04T05:43:56;13.63;;;5.23;;
73296;SDS011;61524;50.938;11.396;2023-03-04T05:46:21;9.13;;;3.83;;
73296;SDS011;61524;50.938;11.396;2023-03-04T05:48:50;12.15;;;5.25;;
73296;SDS011;61524;50.938;11.396;2023-03-04T05:51:15;16.13;;;5.20;;
73296;SDS011;61524;50.938;11.396;2023-03-04T05:53:40;13.23;;;5.47;;
73296;SDS011;61524;50.938;11.396;2023-03-04T05:56:07;15.20;;;5.38;;
73296;SDS011;61524;50.938;11.396;2023-03-04T05:58:32;13.02;;;5.13;;
73296;SDS011;61524;50.938;11.396;2023-03-04T06:01:01;16.60;;;5.07;;
73296;SDS011;61524;50.938;11.396;2023-03-04T06:03:26;15.48;;;5.45;;
73296;SDS011;61524;50.938;11.396;2023-03-04T06:05:52;10.18;;;4.22;;
73296;SDS011;61524;50.938;11.396;2023-03-04T06:08:17;17.70;;;4.75;;
73296;SDS011;61524;50.938;11.396;2023-03-04T06:10:42;9.73;;;4.53;;
73296;SDS011;61524;50.938;11.396;2023-03-04T06:13:08;14.70;;;3.67;;
73296;SDS011;61524;50.938;11.396;2023-03-04T06:15:34;14.40;;;5.05;;
73296;SDS011;61524;50.938;11.396;2023-03-04T06:17:59;13.68;;;4.55;;
73296;SDS011;61524;50.938;11.396;2023-03-04T06:20:24;12.88;;;4.32;;
73296;SDS011;61524;50.938;11.396;2023-03-04T06:22:50;12.20;;;4.23;;
73296;SDS011;61524;50.938;11.396;2023-03-04T06:25:15;9.63;;;3.57;;
73296;SDS011;61524;50.938;11.396;2023-03-04T06:27:40;18.02;;;4.07;;
73296;SDS011;61524;50.938;11.396;2023-03-04T06:30:06;15.60;;;4.30;;
73296;SDS011;61524;50.938;11.396;2023-03-04T06:32:31;10.25;;;3.78;;
73296;SDS011;61524;50.938;11.396;2023-03-04T06:34:56;16.57;;;4.33;;
73296;SDS011;61524;50.938;11.396;2023-03-04T06:37:22;10.48;;;4.13;;
73296;SDS011;61524;50.938;11.396;2023-03-04T06:39:47;7.90;;;3.65;;
73296;SDS011;61524;50.938;11.396;2023-03-04T06:42:13;14.40;;;3.80;;
73296;SDS011;61524;50.938;11.396;2023-03-04T06:44:38;10.02;;;4.32;;
73296;SDS011;61524;50.938;11.396;2023-03-04T06:47:04;13.50;;;3.67;;
73296;SDS011;61524;50.938;11.396;2023-03-04T06:49:29;9.10;;;3.00;;
73296;SDS011;61524;50.938;11.396;2023-03-04T06:51:54;12.87;;;3.90;;
73296;SDS011;61524;50.938;11.396;2023-03-04T06:54:19;7.27;;;3.47;;
73296;SDS011;61524;50.938;11.396;2023-03-04T06:56:45;14.38;;;3.70;;
73296;SDS011;61524;50.938;11.396;2023-03-04T06:59:10;8.53;;;3.13;;
73296;SDS011;61524;50.938;11.396;2023-03-04T07:01:35;7.27;;;3.20;;
73296;SDS011;61524;50.938;11.396;2023-03-04T07:04:02;11.60;;;3.38;;
73296;SDS011;61524;50.938;11.396;2023-03-04T07:06:28;12.10;;;3.40;;
73296;SDS011;61524;50.938;11.396;2023-03-04T07:08:53;10.43;;;3.30;;
73296;SDS011;61524;50.938;11.396;2023-03-04T07:11:19;15.05;;;3.55;;
73296;SDS011;61524;50.938;11.396;2023-03-04T07:13:46;8.82;;;2.40;;
73296;SDS011;61524;50.938;11.396;2023-03-04T07:16:13;10.48;;;2.67;;
73296;SDS011;61524;50.938;11.396;2023-03-04T07:18:39;7.97;;;2.45;;
73296;SDS011;61524;50.938;11.396;2023-03-04T07:21:04;16.55;;;3.88;;
73296;SDS011;61524;50.938;11.396;2023-03-04T07:23:30;17.17;;;3.35;;
73296;SDS011;61524;50.938;11.396;2023-03-04T07:25:55;7.20;;;2.77;;
73296;SDS011;61524;50.938;11.396;2023-03-04T07:28:21;8.90;;;2.90;;
73296;SDS011;61524;50.938;11.396;2023-03-04T07:30:46;10.90;;;3.03;;
73296;SDS011;61524;50.938;11.396;2023-03-04T07:33:12;5.53;;;2.40;;
73296;SDS011;61524;50.938;11.396;2023-03-04T07:35:37;8.50;;;2.63;;
73296;SDS011;61524;50.938;11.396;2023-03-04T07:38:03;11.23;;;3.10;;
73296;SDS011;61524;50.938;11.396;2023-03-04T07:40:28;11.03;;;3.20;;
73296;SDS011;61524;50.938;11.396;2023-03-04T07:42:54;6.68;;;2.83;;
73296;SDS011;61524;50.938;11.396;2023-03-04T07:45:19;9.88;;;2.80;;
73296;SDS011;61524;50.938;11.396;2023-03-04T07:47:45;10.53;;;2.50;;
73296;SDS011;61524;50.938;11.396;2023-03-04T07:50:10;9.37;;;3.07;;
73296;SDS011;61524;50.938;11.396;2023-03-04T07:52:39;8.30;;;2.90;;
73296;SDS011;61524;50.938;11.396;2023-03-04T07:55:05;6.22;;;2.42;;
73296;SDS011;61524;50.938;11.396;2023-03-04T07:57:30;9.60;;;3.58;;
73296;SDS011;61524;50.938;11.396;2023-03-04T07:59:56;8.30;;;3.00;;
73296;SDS011;61524;50.938;11.396;2023-03-04T08:02:21;9.07;;;2.37;;
73296;SDS011;61524;50.938;11.396;2023-03-04T08:04:46;12.53;;;3.37;;
73296;SDS011;61524;50.938;11.396;2023-03-04T08:07:11;5.03;;;2.30;;
73296;SDS011;61524;50.938;11.396;2023-03-04T08:09:37;7.53;;;2.67;;
73296;SDS011;61524;50.938;11.396;2023-03-04T08:12:02;13.93;;;3.20;;
73296;SDS011;61524;50.938;11.396;2023-03-04T08:14:27;5.72;;;2.55;;
73296;SDS011;61524;50.938;11.396;2023-03-04T08:16:53;7.00;;;2.30;;
73296;SDS011;61524;50.938;11.396;2023-03-04T08:19:18;7.60;;;2.70;;
73296;SDS011;61524;50.938;11.396;2023-03-04T08:21:43;5.10;;;2.37;;
73296;SDS011;61524;50.938;11.396;2023-03-04T08:24:09;12.60;;;4.17;;
73296;SDS011;61524;50.938;11.396;2023-03-04T08:26:36;11.07;;;2.80;;
73296;SDS011;61524;50.938;11.396;2023-03-04T08:29:06;8.15;;;2.60;;
73296;SDS011;61524;50.938;11.396;2023-03-04T08:31:32;8.57;;;2.72;;
73296;SDS011;61524;50.938;11.396;2023-03-04T08:33:58;7.95;;;2.78;;
73296;SDS011;61524;50.938;11.396;2023-03-04T08:36:23;7.65;;;3.08;;
73296;SDS011;61524;50.938;11.396;2023-03-04T08:38:48;12.27;;;2.23;;
73296;SDS011;61524;50.938;11.396;2023-03-04T08:41:14;7.25;;;2.97;;
73296;SDS011;61524;50.938;11.396;2023-03-04T08:43:39;10.30;;;2.88;;
73296;SDS011;61524;50.938;11.396;2023-03-04T08:46:05;9.98;;;2.50;;
73296;SDS011;61524;50.938;11.396;2023-03-04T08:48:30;7.25;;;2.15;;
73296;SDS011;61524;50.938;11.396;2023-03-04T08:50:56;8.43;;;2.20;;
73296;SDS011;61524;50.938;11.396;2023-03-04T08:53:21;8.05;;;2.15;;
73296;SDS011;61524;50.938;11.396;2023-03-04T08:55:47;9.13;;;2.00;;
73296;SDS011;61524;50.938;11.396;2023-03-04T08:58:12;13.18;;;2.45;;
73296;SDS011;61524;50.938;11.396;2023-03-04T09:00:39;7.30;;;2.35;;
73296;SDS011;61524;50.938;11.396;2023-03-04T09:03:04;9.82;;;2.05;;
73296;SDS011;61524;50.938;11.396;2023-03-04T09:05:30;5.60;;;2.25;;
73296;SDS011;61524;50.938;11.396;2023-03-04T09:07:56;6.15;;;1.85;;
73296;SDS011;61524;50.938;11.396;2023-03-04T09:10:22;7.85;;;2.00;;
73296;SDS011;61524;50.938;11.396;2023-03-04T09:12:47;8.07;;;2.00;;
73296;SDS011;61524;50.938;11.396;2023-03-04T09:15:12;3.50;;;1.33;;
73296;SDS011;61524;50.938;11.396;2023-03-04T09:17:38;8.40;;;1.80;;
73296;SDS011;61524;50.938;11.396;2023-03-04T09:20:03;6.28;;;1.40;;
73296;SDS011;61524;50.938;11.396;2023-03-04T09:22:29;4.85;;;1.58;;
73296;SDS011;61524;50.938;11.396;2023-03-04T09:24:55;6.38;;;1.73;;
73296;SDS011;61524;50.938;11.396;2023-03-04T09:27:20;5.00;;;1.30;;
73296;SDS011;61524;50.938;11.396;2023-03-04T09:29:45;6.00;;;1.23;;
73296;SDS011;61524;50.938;11.396;2023-03-04T09:32:11;5.97;;;1.40;;
73296;SDS011;61524;50.938;11.396;2023-03-04T09:34:36;3.80;;;1.02;;
73296;SDS011;61524;50.938;11.396;2023-03-04T09:37:01;7.50;;;1.75;;
73296;SDS011;61524;50.938;11.396;2023-03-04T09:39:27;6.23;;;1.13;;
73296;SDS011;61524;50.938;11.396;2023-03-04T09:41:54;2.92;;;1.15;;
73296;SDS011;61524;50.938;11.396;2023-03-04T09:44:27;5.25;;;1.45;;
73296;SDS011;61524;50.938;11.396;2023-03-04T09:46:54;5.60;;;1.63;;
73296;SDS011;61524;50.938;11.396;2023-03-04T09:49:22;4.97;;;1.65;;
73296;SDS011;61524;50.938;11.396;2023-03-04T09:51:55;5.22;;;1.67;;
73296;SDS011;61524;50.938;11.396;2023-03-04T09:59:43;3.63;;;1.40;;
73296;SDS011;61524;50.938;11.396;2023-03-04T10:02:16;2.80;;;1.63;;
73296;SDS011;61524;50.938;11.396;2023-03-04T10:07:12;5.27;;;1.20;;
73296;SDS011;61524;50.938;11.396;2023-03-04T10:09:45;7.53;;;1.80;;
73296;SDS011;61524;50.938;11.396;2023-03-04T10:12:12;4.68;;;1.30;;
73296;SDS011;61524;50.938;11.396;2023-03-04T10:14:41;4.43;;;1.10;;
73296;SDS011;61524;50.938;11.396;2023-03-04T10:17:13;4.40;;;1.73;;
73296;SDS011;61524;50.938;11.396;2023-03-04T10:19:50;4.25;;;1.52;;
73296;SDS011;61524;50.938;11.396;2023-03-04T10:24:58;4.97;;;1.92;;
73296;SDS011;61524;50.938;11.396;2023-03-04T10:29:50;7.30;;;1.20;;
73296;SDS011;61524;50.938;11.396;2023-03-04T10:32:16;9.43;;;3.67;;
73296;SDS011;61524;50.938;11.396;2023-03-04T10:34:42;16.33;;;6.22;;
73296;SDS011;61524;50.938;11.396;2023-03-04T10:37:07;9.23;;;4.00;;
73296;SDS011;61524;50.938;11.396;2023-03-04T10:39:35;19.95;;;7.07;;
73296;SDS011;61524;50.938;11.396;2023-03-04T10:44:26;5.83;;;2.40;;
73296;SDS011;61524;50.938;11.396;2023-03-04T10:46:52;4.30;;;1.90;;
73296;SDS011;61524;50.938;11.396;2023-03-04T10:49:18;7.15;;;3.13;;
73296;SDS011;61524;50.938;11.396;2023-03-04T10:59:30;5.60;;;1.60;;
73296;SDS011;61524;50.938;11.396;2023-03-04T11:01:56;3.47;;;1.73;;
73296;SDS011;61524;50.938;11.396;2023-03-04T11:04:22;2.78;;;1.67;;
73296;SDS011;61524;50.938;11.396;2023-03-04T11:06:49;15.93;;;5.25;;
73296;SDS011;61524;50.938;11.396;2023-03-04T11:09:22;15.80;;;6.65;;
73296;SDS011;61524;50.938;11.396;2023-03-04T11:11:48;9.45;;;3.42;;
73296;SDS011;61524;50.938;11.396;2023-03-04T11:14:36;7.20;;;2.17;;
73296;SDS011;61524;50.938;11.396;2023-03-04T11:17:17;7.30;;;3.83;;
73296;SDS011;61524;50.938;11.396;2023-03-04T11:19:44;10.20;;;4.15;;
73296;SDS011;61524;50.938;11.396;2023-03-04T11:22:14;7.60;;;2.00;;
73296;SDS011;61524;50.938;11.396;2023-03-04T11:24:41;3.38;;;1.35;;
73296;SDS011;61524;50.938;11.396;2023-03-04T11:27:10;7.78;;;1.42;;
73296;SDS011;61524;50.938;11.396;2023-03-04T11:29:39;3.28;;;1.95;;
73296;SDS011;61524;50.938;11.396;2023-03-04T11:32:13;2.72;;;1.05;;
73296;SDS011;61524;50.938;11.396;2023-03-04T11:37:20;4.93;;;1.52;;
73296;SDS011;61524;50.938;11.396;2023-03-04T11:39:51;3.15;;;1.15;;
73296;SDS011;61524;50.938;11.396;2023-03-04T11:44:48;3.55;;;1.42;;
73296;SDS011;61524;50.938;11.396;2023-03-04T12:03:10;3.15;;;1.45;;
73296;SDS011;61524;50.938;11.396;2023-03-04T12:08:21;4.47;;;1.53;;
73296;SDS011;61524;50.938;11.396;2023-03-04T12:18:49;3.13;;;1.33;;
73296;SDS011;61524;50.938;11.396;2023-03-04T12:36:39;5.00;;;1.25;;
73296;SDS011;61524;50.938;11.396;2023-03-04T12:44:05;2.55;;;1.40;;
73296;SDS011;61524;50.938;11.396;2023-03-04T12:46:39;5.80;;;1.60;;
73296;SDS011;61524;50.938;11.396;2023-03-04T12:58:47;3.70;;;1.47;;
73296;SDS011;61524;50.938;11.396;2023-03-04T13:08:48;4.80;;;1.15;;
73296;SDS011;61524;50.938;11.396;2023-03-04T13:14:05;3.97;;;1.40;;
73296;SDS011;61524;50.938;11.396;2023-03-04T13:16:44;3.13;;;1.33;;
73296;SDS011;61524;50.938;11.396;2023-03-04T13:21:56;3.53;;;1.50;;
73296;SDS011;61524;50.938;11.396;2023-03-04T13:29:50;4.95;;;1.63;;
73296;SDS011;61524;50.938;11.396;2023-03-04T13:32:33;5.87;;;1.70;;
73296;SDS011;61524;50.938;11.396;2023-03-04T13:34:59;2.45;;;1.20;;
73296;SDS011;61524;50.938;11.396;2023-03-04T13:39:56;2.63;;;1.60;;
73296;SDS011;61524;50.938;11.396;2023-03-04T13:42:39;4.00;;;1.50;;
73296;SDS011;61524;50.938;11.396;2023-03-04T13:45:27;3.30;;;1.40;;
73296;SDS011;61524;50.938;11.396;2023-03-04T13:47:50;3.53;;;1.67;;
73296;SDS011;61524;50.938;11.396;2023-03-04T13:50:23;4.00;;;1.65;;
73296;SDS011;61524;50.938;11.396;2023-03-04T13:52:48;2.65;;;1.08;;
73296;SDS011;61524;50.938;11.396;2023-03-04T13:55:33;4.20;;;1.42;;
73296;SDS011;61524;50.938;11.396;2023-03-04T13:57:59;3.03;;;1.40;;
73296;SDS011;61524;50.938;11.396;2023-03-04T14:00:26;2.53;;;1.20;;
73296;SDS011;61524;50.938;11.396;2023-03-04T14:02:51;1.83;;;1.00;;
73296;SDS011;61524;50.938;11.396;2023-03-04T14:05:16;3.47;;;1.40;;
73296;SDS011;61524;50.938;11.396;2023-03-04T14:07:42;1.77;;;1.00;;
73296;SDS011;61524;50.938;11.396;2023-03-04T14:12:36;3.35;;;0.98;;
73296;SDS011;61524;50.938;11.396;2023-03-04T14:15:03;6.53;;;1.58;;
73296;SDS011;61524;50.938;11.396;2023-03-04T14:17:30;2.65;;;1.30;;
73296;SDS011;61524;50.938;11.396;2023-03-04T14:19:55;2.30;;;1.05;;
73296;SDS011;61524;50.938;11.396;2023-03-04T14:22:28;2.95;;;1.23;;
73296;SDS011;61524;50.938;11.396;2023-03-04T14:24:57;2.60;;;1.17;;
73296;SDS011;61524;50.938;11.396;2023-03-04T14:27:22;3.42;;;1.42;;
73296;SDS011;61524;50.938;11.396;2023-03-04T14:29:58;5.93;;;2.27;;
73296;SDS011;61524;50.938;11.396;2023-03-04T14:32:23;3.78;;;1.75;;
73296;SDS011;61524;50.938;11.396;2023-03-04T14:34:49;3.55;;;1.20;;
73296;SDS011;61524;50.938;11.396;2023-03-04T14:37:22;4.05;;;2.10;;
73296;SDS011;61524;50.938;11.396;2023-03-04T14:39:48;3.17;;;1.33;;
73296;SDS011;61524;50.938;11.396;2023-03-04T14:42:14;3.10;;;1.15;;
73296;SDS011;61524;50.938;11.396;2023-03-04T14:44:41;2.33;;;1.33;;
73296;SDS011;61524;50.938;11.396;2023-03-04T14:47:17;5.65;;;2.40;;
73296;SDS011;61524;50.938;11.396;2023-03-04T14:49:44;3.97;;;1.40;;
73296;SDS011;61524;50.938;11.396;2023-03-04T14:55:01;1.98;;;1.00;;
73296;SDS011;61524;50.938;11.396;2023-03-04T14:57:30;4.78;;;1.75;;
73296;SDS011;61524;50.938;11.396;2023-03-04T15:00:12;3.45;;;1.85;;
73296;SDS011;61524;50.938;11.396;2023-03-04T15:02:38;3.70;;;1.13;;
73296;SDS011;61524;50.938;11.396;2023-03-04T15:07:51;3.97;;;1.83;;
73296;SDS011;61524;50.938;11.396;2023-03-04T15:10:19;6.43;;;2.50;;
73296;SDS011;61524;50.938;11.396;2023-03-04T15:12:49;5.40;;;2.20;;
73296;SDS011;61524;50.938;11.396;2023-03-04T15:18:00;9.07;;;3.45;;
73296;SDS011;61524;50.938;11.396;2023-03-04T15:20:30;5.03;;;2.60;;
73296;SDS011;61524;50.938;11.396;2023-03-04T15:22:56;4.18;;;1.80;;
73296;SDS011;61524;50.938;11.396;2023-03-04T15:25:22;4.05;;;1.95;;
73296;SDS011;61524;50.938;11.396;2023-03-04T15:27:49;3.80;;;1.88;;
73296;SDS011;61524;50.938;11.396;2023-03-04T15:32:40;4.78;;;2.30;;
73296;SDS011;61524;50.938;11.396;2023-03-04T15:35:05;3.53;;;1.40;;
73296;SDS011;61524;50.938;11.396;2023-03-04T15:37:30;5.97;;;2.45;;
73296;SDS011;61524;50.938;11.396;2023-03-04T15:39:56;5.97;;;2.80;;
73296;SDS011;61524;50.938;11.396;2023-03-04T15:42:21;6.30;;;3.25;;
73296;SDS011;61524;50.938;11.396;2023-03-04T15:44:47;5.20;;;2.42;;
73296;SDS011;61524;50.938;11.396;2023-03-04T15:47:12;4.17;;;1.63;;
73296;SDS011;61524;50.938;11.396;2023-03-04T15:49:41;4.30;;;1.58;;
73296;SDS011;61524;50.938;11.396;2023-03-04T15:52:11;3.80;;;1.42;;
73296;SDS011;61524;50.938;11.396;2023-03-04T15:54:38;4.00;;;2.22;;
73296;SDS011;61524;50.938;11.396;2023-03-04T15:57:04;15.02;;;9.73;;
73296;SDS011;61524;50.938;11.396;2023-03-04T15:59:30;8.85;;;5.05;;
73296;SDS011;61524;50.938;11.396;2023-03-04T16:01:56;6.67;;;3.73;;
73296;SDS011;61524;50.938;11.396;2023-03-04T16:04:21;6.03;;;3.20;;
73296;SDS011;61524;50.938;11.396;2023-03-04T16:06:47;6.85;;;3.47;;
73296;SDS011;61524;50.938;11.396;2023-03-04T16:09:14;7.07;;;3.58;;
73296;SDS011;61524;50.938;11.396;2023-03-04T16:14:08;7.35;;;2.63;;
73296;SDS011;61524;50.938;11.396;2023-03-04T16:16:33;5.88;;;3.15;;
73296;SDS011;61524;50.938;11.396;2023-03-04T16:18:59;6.35;;;3.30;;
73296;SDS011;61524;50.938;11.396;2023-03-04T16:21:24;20.80;;;9.00;;
73296;SDS011;61524;50.938;11.396;2023-03-04T16:23:50;18.63;;;7.78;;
73296;SDS011;61524;50.938;11.396;2023-03-04T16:26:20;5.25;;;2.40;;
73296;SDS011;61524;50.938;11.396;2023-03-04T16:28:45;4.22;;;1.63;;